Latest Coastal Weather Observations for Melbourne (Olympic Park)

IDV60701

Issued at 4:52 am EDT Wednesday 7 December 2016 (issued every 10 minutes, with the page automatically refreshed every 10 minutes)

About coastal observations | Map of coastal stations | Coastal observations for VIC | Marine services | Other Formats
Station Details ID: 086338 Name: MELBOURNE (OLYMPIC PARK) Lat: -37.83 Lon: 144.98 Height: 7.53 m
Data from the previous 72 hours. | See also: Recent months at Melbourne (Olympic Park)
Date/Time
EDT
Temp
°C
Wind Pressure Rain since
9am
mm
Weather Cloud Vis
km
Sea
Height
m
Swell
Dir  Spd
kts
Gust
kts
hPa Trend Height
m
Period
s
Dir
07/04:30am 10.8 ENE 3 6 1014.5 - 0.0 - - 10 - - - -
07/04:00am 10.7 CALM 0 0 1014.4 - 0.0 - - 10 - - - -
07/03:30am 10.8 CALM 0 0 1014.5 - 0.0 - - 10 - - - -
07/03:00am 11.0 CALM 0 0 1014.7 - 0.0 - - 10 - - - -
07/02:30am 11.3 CALM 0 0 1015.0 - 0.0 - - 10 - - - -
07/02:00am 11.4 CALM 0 0 1015.2 - 0.0 - - 10 - - - -
07/01:30am 12.0 CALM 0 0 1015.4 - 0.0 - - 10 - - - -
07/01:00am 12.4 CALM 0 0 1015.6 - 0.0 - - 10 - - - -
07/12:30am 13.4 CALM 0 0 1015.9 - 0.0 - - 10 - - - -
07/12:00am 13.8 SE 1 5 1016.1 - 0.0 - - 10 - - - -
 
Date/Time
EDT
Temp
°C
Wind Pressure Rain since
9am
mm
Weather Cloud Vis
km
Sea
Height
m
Swell
Dir  Spd
kts
Gust
kts
hPa Trend Height
m
Period
s
Dir
06/11:30pm 14.4 ESE 4 7 1016.1 - 0.0 - - 10 - - - -
06/11:00pm 14.4 S 1 5 1016.2 - 0.0 - - 10 - - - -
06/10:30pm 14.8 SSE 2 7 1016.2 - 0.0 - - 10 - - - -
06/10:00pm 15.2 S 4 9 1016.0 - 0.0 - - 10 - - - -
06/09:30pm 15.5 S 6 10 1015.5 - 0.0 - - 10 - - - -
06/09:00pm 15.6 S 6 11 1015.1 - 0.0 - - 10 - - - -
06/08:30pm 15.7 SSW 5 9 1015.1 - 0.0 - - 10 - - - -
06/08:00pm 16.1 S 9 16 1015.0 - 0.0 - - 10 - - - -
06/07:30pm 16.9 S 8 15 1014.6 - 0.0 - - 10 - - - -
06/07:00pm 17.5 SSW 8 15 1014.4 - 0.0 - - 10 - - - -
06/06:30pm 18.4 SSW 7 13 1014.1 - 0.0 - - 10 - - - -
06/06:00pm 18.1 SSW 9 15 1013.9 - 0.0 - - 10 - - - -
06/05:30pm 18.1 SSW 8 15 1013.6 - 0.0 - - 10 - - - -
06/05:00pm 19.1 SSW 8 13 1013.4 - 0.0 - - 10 - - - -
06/04:30pm 19.3 SW 7 13 1013.3 - 0.0 - - 10 - - - -
06/04:00pm 19.8 SSW 6 10 1013.2 - 0.0 - - 10 - - - -
06/03:30pm 20.5 SSW 6 10 1013.3 - 0.0 - - 10 - - - -
06/03:00pm 19.4 S 6 10 1013.5 - 0.0 - - 10 - - - -
06/02:30pm 18.7 S 8 12 1013.7 - 0.0 - - 10 - - - -
06/02:00pm 18.2 S 8 14 1013.7 - 0.0 - - 10 - - - -
06/01:30pm 18.4 SSW 6 10 1013.9 - 0.0 - - 10 - - - -
06/01:00pm 17.6 SSW 7 11 1013.9 - 0.0 - - 10 - - - -
06/12:30pm 17.5 S 7 14 1014.0 - 0.0 - - 10 - - - -
06/12:00pm 17.6 SSW 7 11 1014.2 - 0.0 - - 10 - - - -
06/11:30am 17.3 SSW 5 9 1014.1 - 0.0 - - 10 - - - -
06/11:00am 16.7 SSW 5 8 1014.0 - 0.0 - - 10 - - - -
06/10:30am 16.6 SW 4 9 1014.1 - 0.0 - - 10 - - - -
06/10:00am 16.3 S 4 7 1014.4 - 0.0 - - 10 - - - -
06/09:30am 16.0 SW 2 6 1014.5 - 0.0 - - 10 - - - -
06/09:00am 15.6 S 2 4 1014.3 - 0.0 - - 10 - - - -
06/08:30am 15.4 SSW 1 4 1014.1 - 0.0 - - 10 - - - -
06/08:00am 15.4 SSE 2 5 1014.0 - 0.0 - - 10 - - - -
06/07:30am 15.2 CALM 0 0 1013.9 - 0.0 - - 10 - - - -
06/07:00am 14.7 SE 2 4 1013.6 - 0.0 - - 10 - - - -
06/06:30am 13.5 CALM 0 0 1013.5 - 0.0 - - 10 - - - -
06/06:00am 12.9 CALM 0 0 1012.6 - 0.0 - - 10 - - - -
06/05:30am 13.0 CALM 0 0 1012.5 - 0.0 - - 10 - - - -
06/05:00am 13.1 CALM 0 0 1012.0 - 0.0 - - 10 - - - -
06/04:30am 13.5 CALM 0 0 1012.1 - 0.0 - - 10 - - - -
06/04:00am 13.8 CALM 0 3 1011.8 - 0.0 - - 10 - - - -
06/03:30am 14.1 SSE 2 5 1011.5 - 0.0 - - 10 - - - -
06/03:00am 14.1 SSE 2 5 1011.8 - 0.0 - - 10 - - - -
06/02:30am 14.3 SSE 5 8 1012.5 - 0.0 - - 10 - - - -
06/02:00am 14.3 S 4 7 1013.0 - 0.0 - - 10 - - - -
06/01:30am 14.3 SSE 4 6 1012.9 - 0.0 - - 10 - - - -
06/01:00am 14.5 SSE 4 6 1013.3 - 0.0 - - 10 - - - -
06/12:30am 14.5 SSE 5 8 1013.1 - 0.0 - - 10 - - - -
06/12:00am 14.7 SE 5 8 1013.6 - 0.0 - - 10 - - - -
 
Date/Time
EDT
Temp
°C
Wind Pressure Rain since
9am
mm
Weather Cloud Vis
km
Sea
Height
m
Swell
Dir  Spd
kts
Gust
kts
hPa Trend Height
m
Period
s
Dir
05/11:30pm 14.9 SE 5 8 1013.7 - 0.0 - - 10 - - - -
05/11:00pm 15.1 SSE 7 9 1014.0 - 0.0 - - 10 - - - -
05/10:30pm 15.4 SSE 5 9 1014.5 - 0.0 - - 10 - - - -
05/10:00pm 15.8 S 6 11 1015.5 - 0.0 - - 10 - - - -
05/09:30pm 15.9 S 7 11 1014.7 - 0.0 - - 10 - - - -
05/09:00pm 16.2 S 7 11 1014.3 - 0.0 - - 10 - - - -
05/08:30pm 16.4 S 5 13 1013.5 - 0.0 - - 10 - - - -
05/08:00pm 16.4 S 8 15 1013.6 - 0.0 - - 10 - - - -
05/07:30pm 16.6 S 7 15 1013.6 - 0.0 - - 10 - - - -
05/07:00pm 17.0 SSW 8 16 1013.3 - 0.0 - - 10 - - - -
05/06:30pm 17.4 S 8 15 1012.7 - 0.0 - - 10 - - - -
05/06:00pm 17.7 S 7 14 1012.5 - 0.0 - - 10 - - - -
05/05:30pm 17.9 S 8 15 1012.3 - 0.0 - - 10 - - - -
05/05:00pm 18.4 SSW 8 15 1012.1 - 0.0 - - 10 - - - -
05/04:30pm 19.0 S 8 14 1012.1 - 0.0 - - 10 - - - -
05/04:00pm 20.1 SSW 7 13 1012.3 - 0.0 - - 10 - - - -
05/03:30pm 21.5 SSW 6 9 1011.9 - 0.0 - - 10 - - - -
05/03:00pm 20.4 SSW 7 11 1011.6 - 0.0 - - 10 - - - -
05/02:30pm 20.6 SSW 7 14 1011.9 - 0.0 - - 10 - - - -
05/02:00pm 20.9 S 8 11 1012.1 - 0.0 - - 10 - - - -
05/01:30pm 19.9 SSW 8 15 1012.1 - 0.0 - - 10 - - - -
05/01:00pm 20.4 SSW 6 9 1012.0 - 0.0 - - 10 - - - -
05/12:30pm 19.9 S 6 9 1012.0 - 0.0 - - 10 - - - -
05/12:00pm 19.1 SW 6 10 1012.3 - 0.0 - - 10 - - - -
05/11:30am 18.6 S 6 9 1012.4 - 0.0 - - 10 - - - -
05/11:00am 17.9 W 5 11 1012.6 - 0.0 - - 10 - - - -
05/10:30am 17.5 SW 5 8 1012.4 - 0.0 - - 10 - - - -
05/10:00am 17.4 SSW 5 11 1012.1 - 0.0 - - 10 - - - -
05/09:30am 17.4 SSW 6 10 1012.1 - 0.0 - - 10 - - - -
05/09:00am 17.3 W 5 13 1012.0 - 2.4 - - 10 - - - -
05/08:30am 17.3 WSW 6 11 1011.3 - 2.4 - - 10 - - - -
05/08:00am 17.2 WSW 5 11 1010.8 - 2.4 - - 10 - - - -
05/07:30am 17.2 WSW 6 13 1010.2 - 2.4 - - 10 - - - -
05/07:00am 17.7 SW 6 13 1009.5 - 2.4 - - 10 - - - -
05/06:30am 17.7 SW 8 16 1008.9 - 2.4 - - 10 - - - -
05/06:00am 19.0 WSW 7 13 1008.1 - 2.4 - - 10 - - - -
05/05:59am 19.1 SW 7 13 1008.1 - 2.4 - - 10 - - - -
05/05:30am 23.6 NW 7 10 1006.1 - 2.4 - - 10 - - - -
05/05:00am 24.1 NNW 6 13 1005.4 - 2.4 - - 10 - - - -
05/04:30am 23.2 NNW 7 15 1004.8 - 2.4 - - 10 - - - -
05/04:00am 23.2 NNW 10 15 1004.2 - 2.4 - - 10 - - - -
05/03:30am 22.8 N 9 13 1003.8 - 2.4 - - 10 - - - -
05/03:00am 22.1 N 9 15 1003.8 - 2.4 - - 10 - - - -
05/02:30am 22.3 N 11 17 1003.8 - 2.4 - - 10 - - - -
05/02:00am 22.5 N 10 15 1003.7 - 2.4 - - 10 - - - -
05/01:30am 22.4 N 10 19 1003.9 - 2.4 - - 10 - - - -
05/01:00am 22.3 N 11 17 1004.3 - 2.4 - - 10 - - - -
05/12:30am 22.7 N 11 17 1004.6 - 2.4 - - 10 - - - -
05/12:00am 22.8 N 10 16 1005.0 - 2.4 - - 10 - - - -
 
Date/Time
EDT
Temp
°C
Wind Pressure Rain since
9am
mm
Weather Cloud Vis
km
Sea
Height
m
Swell
Dir  Spd
kts
Gust
kts
hPa Trend Height
m
Period
s
Dir
04/11:30pm 22.1 N 6 13 1004.8 - 2.4 - - 10 - - - -
04/11:00pm 22.4 N 7 10 1005.2 - 2.4 - - 10 - - - -
04/10:30pm 20.5 NE 6 10 1005.3 - 2.4 - - 10 - - - -
04/10:00pm 20.7 NNE 6 9 1005.7 - 2.4 - - 10 - - - -
04/09:30pm 20.8 NNE 6 8 1006.0 - 2.4 - - 10 - - - -
04/09:00pm 20.5 NNE 5 9 1006.4 - 2.4 Rain - 10 - - - -
04/08:32pm 20.4 NNE 8 11 1006.9 - 2.4 - - 10 - - - -
04/08:30pm 20.5 NNE 8 11 1006.8 - 2.4 - - 10 - - - -
04/08:14pm 21.4 NNE 7 10 1007.1 - 1.2 - - 7 - - - -
04/08:00pm 22.5 N 7 11 1007.2 - 0.2 - - 10 - - - -
04/07:30pm 23.8 N 5 6 1006.8 - 0.0 - - 10 - - - -
04/07:00pm 24.5 WNW 3 6 1007.2 - 0.0 - - 10 - - - -
04/06:30pm 26.3 WNW 9 15 1007.1 - 0.0 - - 10 - - - -
04/06:00pm 29.0 WNW 11 22 1006.1 - 0.0 - - 10 - - - -
04/05:30pm 30.8 NNW 9 17 1005.0 - 0.0 - - 10 - - - -
04/05:00pm 30.0 CALM 0 1 1004.6 - 0.0 - - 10 - - - -
04/04:30pm 31.4 NNE 4 7 1004.6 - 0.0 - - 10 - - - -
04/04:00pm 31.3 N 5 8 1004.9 - 0.0 - - 10 - - - -
04/03:30pm 31.4 N 6 10 1005.5 - 0.0 - - 10 - - - -
04/03:00pm 30.9 N 7 10 1006.0 - 0.0 - - 10 - - - -
04/02:30pm 30.8 N 10 16 1006.5 - 0.0 - - 10 - - - -
04/02:00pm 30.8 NNW 11 23 1006.7 - 0.0 - - 10 - - - -
04/01:30pm 31.3 NNW 11 18 1007.1 - 0.0 - - 10 - - - -
04/01:00pm 30.3 NNW 11 20 1007.6 - 0.0 - - 10 - - - -
04/12:30pm 29.7 N 10 16 1007.8 - 0.0 - - 10 - - - -
04/12:00pm 29.7 N 11 17 1008.1 - 0.0 - - 10 - - - -
04/11:30am 29.6 N 13 21 1008.4 - 0.0 - - 10 - - - -
04/11:00am 29.6 N 12 19 1008.7 - 0.0 - - 10 - - - -
04/10:30am 25.3 NNE 5 7 1008.9 - 0.0 - - 10 - - - -
04/10:00am 22.5 ENE 4 5 1009.5 - 0.0 - - 10 - - - -
04/09:30am 20.3 NE 3 7 1009.8 - 0.0 - - 10 - - - -
04/09:00am 18.1 NE 3 7 1010.1 - 0.0 - - 10 - - - -
04/08:30am 16.6 N 4 6 1010.5 - 0.0 - - 10 - - - -
04/08:00am 15.8 NNE 5 6 1010.5 - 0.0 - - 10 - - - -
04/07:30am 14.4 NNE 3 5 1010.7 - 0.0 - - 10 - - - -
04/07:00am 13.5 NE 3 5 1010.8 - 0.0 - - 10 - - - -
04/06:30am 12.8 NNE 5 7 1010.8 - 0.0 - - 10 - - - -
04/06:00am 12.8 NE 5 6 1011.0 - 0.0 - - 10 - - - -
04/05:30am 13.0 NNE 6 7 1010.9 - 0.0 - - 10 - - - -
04/05:00am 13.1 CALM 0 0 1011.1 - 0.0 - - 10 - - - -

Other Formats:

Comma delimited format used in spreadsheet applications
http://www.bom.gov.au/fwo/IDV60701/IDV60701.95936.axf

JavaScript Object Notation format (JSON) in row-major order
http://www.bom.gov.au/fwo/IDV60701/IDV60701.95936.json